createdAt,value
2019-04-26T00:00:35.176Z,28.27
2019-04-26T00:03:08.882Z,27.20
2019-04-26T00:05:38.164Z,40.33
2019-04-26T00:08:07.976Z,27.35
2019-04-26T00:10:40.762Z,33.58
2019-04-26T00:13:12.370Z,33.67
2019-04-26T00:15:43.015Z,30.23
2019-04-26T00:18:12.814Z,30.02
2019-04-26T00:20:41.571Z,33.55
2019-04-26T00:23:10.805Z,37.38
2019-04-26T00:25:39.761Z,37.25
2019-04-26T00:28:08.371Z,33.95
2019-04-26T00:30:36.908Z,34.70
2019-04-26T00:33:05.411Z,37.33
2019-04-26T00:35:46.615Z,33.05
2019-04-26T00:38:04.476Z,35.83
2019-04-26T00:40:33.117Z,37.67
2019-04-26T00:43:02.904Z,28.30
2019-04-26T00:45:34.500Z,28.90
2019-04-26T00:48:03.830Z,32.80
2019-04-26T00:50:33.804Z,32.30
2019-04-26T00:53:04.252Z,29.60
2019-04-26T00:55:34.165Z,32.40
2019-04-26T00:58:03.472Z,34.27
2019-04-26T01:00:32.124Z,38.00
2019-04-26T01:03:00.777Z,37.40
2019-04-26T01:05:30.990Z,32.90
2019-04-26T01:07:59.667Z,31.12
2019-04-26T01:10:28.136Z,34.65
2019-04-26T01:12:56.661Z,30.17
2019-04-26T01:15:25.271Z,34.92
2019-04-26T01:17:53.744Z,32.38
2019-04-26T01:20:27.777Z,34.15
2019-04-26T01:22:59.422Z,27.60
2019-04-26T01:25:38.112Z,37.67
2019-04-26T01:28:09.615Z,35.92
2019-04-26T01:30:40.098Z,37.33
2019-04-26T01:33:10.307Z,30.37
2019-04-26T01:35:39.317Z,27.93
2019-04-26T01:38:10.931Z,35.25
2019-04-26T01:40:42.886Z,37.60
2019-04-26T01:43:13.122Z,34.60
2019-04-26T01:45:51.272Z,28.92
2019-04-26T01:48:44.167Z,32.60
2019-04-26T01:51:22.693Z,30.65
2019-04-26T01:53:52.639Z,38.78
2019-04-26T01:56:25.209Z,31.25
2019-04-26T01:58:54.314Z,35.25
2019-04-26T02:01:25.379Z,35.68
2019-04-26T02:03:54.265Z,41.42
2019-04-26T02:06:29.074Z,40.25
2019-04-26T02:08:54.587Z,29.77
2019-04-26T02:11:24.981Z,33.08
2019-04-26T02:13:54.129Z,33.00
2019-04-26T02:16:23.628Z,30.60
2019-04-26T02:18:52.467Z,33.38
2019-04-26T02:21:26.356Z,34.25
2019-04-26T02:24:09.500Z,46.33
2019-04-26T02:26:41.342Z,35.65
2019-04-26T02:29:21.979Z,31.00
2019-04-26T02:31:56.987Z,27.17
2019-04-26T02:34:29.221Z,26.85
2019-04-26T02:36:59.649Z,32.35
2019-04-26T02:39:37.726Z,37.85
2019-04-26T02:42:15.297Z,31.80
2019-04-26T02:45:00.691Z,37.70
2019-04-26T02:47:38.910Z,35.83
2019-04-26T02:50:11.802Z,38.00
2019-04-26T02:52:43.388Z,39.18
2019-04-26T02:55:48.458Z,30.80
2019-04-26T02:58:19.985Z,34.25
2019-04-26T03:00:49.989Z,33.90
2019-04-26T03:03:20.606Z,31.87
2019-04-26T03:05:51.313Z,46.28
2019-04-26T03:08:23.064Z,36.70
2019-04-26T03:10:54.709Z,30.32
2019-04-26T03:13:28.123Z,41.70
2019-04-26T03:15:59.989Z,27.70
2019-04-26T03:18:35.172Z,32.90
2019-04-26T03:21:32.693Z,33.45
2019-04-26T03:24:10.801Z,33.02
2019-04-26T03:27:00.678Z,37.42
2019-04-26T03:29:36.990Z,33.95
2019-04-26T03:32:16.122Z,37.63
2019-04-26T03:34:56.093Z,37.15
2019-04-26T03:37:39.851Z,35.73
2019-04-26T03:40:49.625Z,37.20
2019-04-26T03:43:21.306Z,31.42
2019-04-26T03:45:55.443Z,33.18
2019-04-26T03:48:57.461Z,38.63
2019-04-26T03:51:39.683Z,45.08
2019-04-26T03:54:14.299Z,36.23
2019-04-26T03:56:47.561Z,34.63
2019-04-26T03:59:23.544Z,33.23
2019-04-26T04:01:56.728Z,28.73
2019-04-26T04:04:39.615Z,31.85
2019-04-26T04:07:11.899Z,29.07
2019-04-26T04:09:44.847Z,37.00
2019-04-26T04:12:38.355Z,30.92
2019-04-26T04:15:10.918Z,31.95
2019-04-26T04:17:48.260Z,35.50
2019-04-26T04:20:43.103Z,28.42
2019-04-26T04:23:24.398Z,32.98
2019-04-26T04:25:55.579Z,35.23
2019-04-26T04:28:36.334Z,38.67
2019-04-26T04:31:16.769Z,36.17
2019-04-26T04:34:03.467Z,34.25
2019-04-26T04:36:35.149Z,47.65
2019-04-26T04:39:13.446Z,35.13
2019-04-26T04:42:12.301Z,31.12
2019-04-26T04:45:03.605Z,33.95
2019-04-26T04:47:36.921Z,34.60
2019-04-26T04:50:15.972Z,27.62
2019-04-26T04:52:53.589Z,36.40
2019-04-26T04:55:42.794Z,37.45
2019-04-26T04:58:22.658Z,26.77
2019-04-26T05:01:26.220Z,27.85
2019-04-26T05:04:19.932Z,35.52
2019-04-26T05:07:23.188Z,33.92
2019-04-26T05:10:09.937Z,33.88
2019-04-26T05:12:47.918Z,35.50
2019-04-26T05:15:44.642Z,33.88
2019-04-26T05:18:48.533Z,41.70
2019-04-26T05:21:20.263Z,34.90
2019-04-26T05:24:21.484Z,30.27
2019-04-26T05:27:00.332Z,37.53
2019-04-26T05:29:46.579Z,35.08
2019-04-26T05:32:52.655Z,35.55
2019-04-26T05:35:47.374Z,32.53
2019-04-26T05:38:37.021Z,32.98
2019-04-26T05:41:32.563Z,37.70
2019-04-26T05:44:26.801Z,34.05
2019-04-26T05:47:14.701Z,33.13
2019-04-26T05:50:31.983Z,38.50
2019-04-26T05:53:17.081Z,30.52
2019-04-26T05:56:12.639Z,37.20
2019-04-26T05:58:53.058Z,38.28
2019-04-26T06:01:45.626Z,39.78
2019-04-26T06:04:24.417Z,33.40
2019-04-26T06:07:21.155Z,26.30
2019-04-26T06:10:19.676Z,39.00
2019-04-26T06:13:02.908Z,26.82
2019-04-26T06:16:07.504Z,42.38
2019-04-26T06:18:43.418Z,33.08
2019-04-26T06:21:15.036Z,30.88
2019-04-26T06:24:02.128Z,39.70
2019-04-26T06:27:13.019Z,38.83
2019-04-26T06:29:43.003Z,42.67
2019-04-26T06:32:38.861Z,40.78
2019-04-26T06:35:19.996Z,27.95
2019-04-26T06:38:21.338Z,28.92
2019-04-26T06:41:21.408Z,30.10
2019-04-26T06:44:06.035Z,28.70
2019-04-26T06:46:47.412Z,29.80
2019-04-26T06:49:28.991Z,30.72
2019-04-26T06:52:12.640Z,31.07
2019-04-26T06:57:33.176Z,31.90
2019-04-26T07:00:21.444Z,31.80
2019-04-26T07:03:02.132Z,28.75
2019-04-26T07:05:42.512Z,27.37
2019-04-26T07:08:39.786Z,30.05
2019-04-26T07:11:30.728Z,23.90
2019-04-26T07:14:11.534Z,32.70
2019-04-26T07:16:45.974Z,27.87
2019-04-26T07:19:58.486Z,31.90
2019-04-26T07:22:43.068Z,33.42
2019-04-26T07:25:34.099Z,36.25
2019-04-26T07:28:08.117Z,28.12
2019-04-26T07:33:39.329Z,38.35
2019-04-26T07:36:42.465Z,28.07
2019-04-26T07:39:21.664Z,38.60
2019-04-26T07:42:32.828Z,23.32
2019-04-26T07:45:33.067Z,24.12
2019-04-26T07:48:36.663Z,30.75
2019-04-26T07:51:25.012Z,33.13
2019-04-26T07:54:13.153Z,27.45
2019-04-26T07:57:03.214Z,28.05
2019-04-26T08:00:04.333Z,24.45
2019-04-26T08:02:55.830Z,23.38
2019-04-26T08:05:29.120Z,31.10
2019-04-26T08:08:04.221Z,31.65
2019-04-26T08:10:36.162Z,24.12
2019-04-26T08:13:13.535Z,26.07
2019-04-26T08:16:04.909Z,22.00
2019-04-26T08:18:37.724Z,29.37
2019-04-26T08:21:16.934Z,36.88
2019-04-26T08:23:56.531Z,18.50
2019-04-26T08:26:27.020Z,35.70
2019-04-26T08:29:00.666Z,29.65
2019-04-26T08:31:31.930Z,24.90
2019-04-26T08:34:06.035Z,31.30
2019-04-26T08:36:39.592Z,25.70
2019-04-26T08:39:18.033Z,22.62
2019-04-26T08:41:49.087Z,21.23
2019-04-26T08:44:22.035Z,26.00
2019-04-26T08:46:56.929Z,27.30
2019-04-26T08:49:26.857Z,20.30
2019-04-26T08:51:59.024Z,27.87
2019-04-26T08:54:32.639Z,24.10
2019-04-26T08:57:07.848Z,22.05
2019-04-26T08:59:48.407Z,19.85
2019-04-26T09:02:21.639Z,25.17
2019-04-26T09:05:12.415Z,30.15
2019-04-26T09:07:44.079Z,27.90
2019-04-26T09:10:16.027Z,27.02
2019-04-26T09:12:47.715Z,26.20
2019-04-26T09:15:19.365Z,23.02
2019-04-26T09:17:47.895Z,26.12
2019-04-26T09:20:28.230Z,20.20
2019-04-26T09:22:50.981Z,16.75
2019-04-26T09:25:30.231Z,27.60
2019-04-26T09:28:13.704Z,28.12
2019-04-26T09:30:55.991Z,28.77
2019-04-26T09:33:31.695Z,28.12
2019-04-26T09:35:59.324Z,29.37
2019-04-26T09:38:27.893Z,22.37
2019-04-26T09:40:57.330Z,30.12
2019-04-26T09:43:39.546Z,18.27
2019-04-26T09:46:15.268Z,26.12
2019-04-26T09:48:51.291Z,28.70
2019-04-26T09:51:19.824Z,21.87
2019-04-26T09:53:48.362Z,19.45
2019-04-26T09:56:16.883Z,19.95
2019-04-26T09:58:45.439Z,21.52
2019-04-26T10:01:14.120Z,24.67
2019-04-26T10:03:42.687Z,23.70
2019-04-26T10:06:11.523Z,22.37
2019-04-26T10:08:43.349Z,25.37
2019-04-26T10:11:12.003Z,26.25
2019-04-26T10:13:42.151Z,21.82
2019-04-26T10:16:18.379Z,19.57
2019-04-26T10:18:48.591Z,22.67
2019-04-26T10:21:17.207Z,23.18
2019-04-26T10:23:46.333Z,22.20
2019-04-26T10:26:14.983Z,17.05
2019-04-26T10:28:46.739Z,19.67
2019-04-26T10:31:17.271Z,17.07
2019-04-26T10:33:44.109Z,23.73
2019-04-26T10:36:12.677Z,21.77
2019-04-26T10:38:41.241Z,23.95
2019-04-26T10:41:10.876Z,16.70
2019-04-26T10:43:39.614Z,20.65
2019-04-26T10:46:08.498Z,18.55
2019-04-26T10:48:37.059Z,18.85
2019-04-26T10:51:07.283Z,22.30
2019-04-26T10:53:40.389Z,17.35
2019-04-26T10:56:25.626Z,20.00
2019-04-26T10:59:01.768Z,17.52
2019-04-26T11:01:30.566Z,20.43
2019-04-26T11:03:59.077Z,13.43
2019-04-26T11:06:28.889Z,17.50
2019-04-26T11:08:57.658Z,22.10
2019-04-26T11:11:26.195Z,16.82
2019-04-26T11:13:57.409Z,21.37
2019-04-26T11:16:25.329Z,15.72
2019-04-26T11:18:57.150Z,20.00
2019-04-26T11:21:24.229Z,18.48
2019-04-26T11:23:52.809Z,26.20
2019-04-26T11:26:21.364Z,15.63
2019-04-26T11:28:51.369Z,22.37
2019-04-26T11:31:23.323Z,21.10
2019-04-26T11:33:50.676Z,17.37
2019-04-26T11:36:19.467Z,20.05
2019-04-26T11:38:48.040Z,21.02
2019-04-26T11:41:16.591Z,26.20
2019-04-26T11:43:45.160Z,20.92
2019-04-26T11:46:13.745Z,14.90
2019-04-26T11:48:42.392Z,20.30
2019-04-26T11:51:10.952Z,15.23
2019-04-26T11:53:43.156Z,20.82
2019-04-26T11:56:09.773Z,15.90
2019-04-26T11:58:38.688Z,22.15
2019-04-26T12:01:08.879Z,18.27
2019-04-26T12:03:38.229Z,16.45
2019-04-26T12:06:08.456Z,15.35
2019-04-26T12:08:50.535Z,18.45
2019-04-26T12:11:25.865Z,16.73
2019-04-26T12:13:49.392Z,14.68
2019-04-26T12:16:18.669Z,18.07
2019-04-26T12:18:48.221Z,15.98
2019-04-26T12:21:16.753Z,19.45
2019-04-26T12:23:45.292Z,12.23
2019-04-26T12:26:17.309Z,15.40
2019-04-26T12:28:44.568Z,16.23
2019-04-26T12:31:15.072Z,17.20
2019-04-26T12:33:44.864Z,14.78
2019-04-26T12:36:14.411Z,15.50
2019-04-26T12:38:43.384Z,18.55
2019-04-26T12:41:11.997Z,18.02
2019-04-26T12:43:40.739Z,15.85
2019-04-26T12:46:26.946Z,19.37
2019-04-26T12:48:52.964Z,18.60
2019-04-26T12:51:21.555Z,19.77
2019-04-26T12:53:50.145Z,14.85
2019-04-26T12:56:18.784Z,17.00
2019-04-26T12:58:50.002Z,14.40
2019-04-26T13:01:17.624Z,17.75
2019-04-26T13:03:47.803Z,19.45
2019-04-26T13:06:16.677Z,15.80
2019-04-26T13:08:47.249Z,17.37
2019-04-26T13:11:33.248Z,21.70
2019-04-26T13:14:06.060Z,24.15
2019-04-26T13:19:04.135Z,16.60
2019-04-26T13:21:33.079Z,16.50
2019-04-26T13:24:04.459Z,20.37
2019-04-26T13:26:34.779Z,22.42
2019-04-26T13:29:03.523Z,15.88
2019-04-26T13:31:32.146Z,12.63
2019-04-26T13:34:03.033Z,16.87
2019-04-26T13:36:31.211Z,16.00
2019-04-26T13:38:59.747Z,15.55
2019-04-26T13:41:28.436Z,20.43
2019-04-26T13:43:57.185Z,23.12
2019-04-26T13:46:45.088Z,17.55
2019-04-26T13:49:18.075Z,14.63
2019-04-26T13:51:46.537Z,25.20
2019-04-26T13:54:16.454Z,19.32
2019-04-26T13:56:45.373Z,15.68
2019-04-26T13:59:13.920Z,18.52
2019-04-26T14:01:42.707Z,19.70
2019-04-26T14:04:11.305Z,16.00
2019-04-26T14:06:40.899Z,16.37
2019-04-26T14:09:11.631Z,17.00
2019-04-26T14:11:40.246Z,17.00
2019-04-26T14:14:08.818Z,19.42
2019-04-26T14:16:37.844Z,16.52
2019-04-26T14:19:06.560Z,18.62
2019-04-26T14:21:35.113Z,16.87
2019-04-26T14:24:14.111Z,18.17
2019-04-26T14:26:44.329Z,19.62
2019-04-26T14:29:12.865Z,18.02
2019-04-26T14:31:41.451Z,15.15
2019-04-26T14:34:12.044Z,19.17
2019-04-26T14:36:40.238Z,15.90
2019-04-26T14:39:10.612Z,23.85
2019-04-26T14:41:39.621Z,16.17
2019-04-26T14:44:15.719Z,16.95
2019-04-26T14:46:48.653Z,18.92
2019-04-26T14:49:09.727Z,19.07
2019-04-26T14:51:40.541Z,17.17
2019-04-26T14:54:11.545Z,18.85
2019-04-26T14:56:51.510Z,24.65
2019-04-26T14:59:10.286Z,18.02
2019-04-26T15:01:55.978Z,13.48
2019-04-26T15:04:44.308Z,17.42
2019-04-26T15:07:12.917Z,15.35
2019-04-26T15:09:42.889Z,18.37
2019-04-26T15:12:14.728Z,14.63
2019-04-26T15:14:42.289Z,14.55
2019-04-26T15:17:12.466Z,12.95
2019-04-26T15:19:45.824Z,15.80
2019-04-26T15:22:12.188Z,15.00
2019-04-26T15:24:42.197Z,15.35
2019-04-26T15:27:11.024Z,13.93
2019-04-26T15:29:39.623Z,61.08
2019-04-26T15:32:08.248Z,11.85
2019-04-26T15:34:36.810Z,14.25
2019-04-26T15:37:05.788Z,10.75
2019-04-26T15:39:35.997Z,10.23
2019-04-26T15:42:18.160Z,13.78
2019-04-26T15:45:06.165Z,13.48
2019-04-26T15:47:38.966Z,7.97
2019-04-26T15:50:10.109Z,13.40
2019-04-26T15:52:39.677Z,14.90
2019-04-26T15:55:08.836Z,9.00
2019-04-26T15:57:37.408Z,10.63
2019-04-26T16:00:07.954Z,13.13
2019-04-26T16:02:36.487Z,21.12
2019-04-26T16:05:07.064Z,14.78
2019-04-26T16:07:35.648Z,11.45
2019-04-26T16:10:06.725Z,15.55
2019-04-26T16:12:35.289Z,16.02
2019-04-26T16:15:06.569Z,8.33
2019-04-26T16:17:36.321Z,14.58
2019-04-26T16:20:07.680Z,13.55
2019-04-26T16:22:36.212Z,10.15
2019-04-26T16:25:06.710Z,10.38
2019-04-26T16:27:35.205Z,10.03
2019-04-26T16:30:10.578Z,8.53
2019-04-26T16:32:58.677Z,7.40
2019-04-26T16:35:28.056Z,17.20
2019-04-26T16:37:53.691Z,12.78
2019-04-26T16:40:23.935Z,11.28
2019-04-26T16:45:23.771Z,14.23
2019-04-26T16:47:53.213Z,14.63
2019-04-26T16:50:31.182Z,12.47
2019-04-26T16:52:52.905Z,21.50
2019-04-26T16:55:24.226Z,16.12
2019-04-26T16:57:55.614Z,16.70
2019-04-26T17:00:31.849Z,14.43
2019-04-26T17:00:45.481Z,8.40
2019-04-26T17:02:52.747Z,14.35
2019-04-26T17:05:44.058Z,18.12
2019-04-26T17:07:53.940Z,21.50
2019-04-26T17:10:24.698Z,16.65
2019-04-26T17:12:54.388Z,15.05
2019-04-26T17:15:24.267Z,20.17
2019-04-26T17:17:54.109Z,17.10
2019-04-26T17:20:22.740Z,14.10
2019-04-26T17:22:59.410Z,19.75
2019-04-26T17:25:36.690Z,21.07
2019-04-26T17:28:05.637Z,22.10
2019-04-26T17:30:40.814Z,15.45
2019-04-26T17:33:05.078Z,20.68
2019-04-26T17:35:36.736Z,12.53
2019-04-26T17:38:05.161Z,16.93
2019-04-26T17:40:36.475Z,14.90
2019-04-26T17:43:05.337Z,19.65
2019-04-26T17:45:36.256Z,15.35
2019-04-26T17:48:06.702Z,17.92
2019-04-26T17:50:38.991Z,21.75
2019-04-26T17:53:06.555Z,16.67
2019-04-26T17:55:36.719Z,16.00
2019-04-26T17:58:12.013Z,14.95
2019-04-26T18:00:45.941Z,27.25
2019-04-26T18:03:11.678Z,19.50
2019-04-26T18:05:55.962Z,23.60
2019-04-26T18:08:31.307Z,25.48
2019-04-26T18:10:41.342Z,15.80
2019-04-26T18:13:15.544Z,26.30
2019-04-26T18:15:47.002Z,20.35
2019-04-26T18:18:17.585Z,21.93
2019-04-26T18:21:05.026Z,26.40
2019-04-26T18:23:33.917Z,32.38
2019-04-26T18:26:03.246Z,27.77
2019-04-26T18:28:33.654Z,33.40
2019-04-26T18:31:03.622Z,30.15
2019-04-26T18:33:32.893Z,28.23
2019-04-26T18:36:01.927Z,32.58
2019-04-26T18:38:30.560Z,31.05
2019-04-26T18:41:01.386Z,26.20
2019-04-26T18:43:29.327Z,28.47
2019-04-26T18:46:03.340Z,38.35
2019-04-26T18:48:35.211Z,23.32
2019-04-26T18:51:00.698Z,31.50
2019-04-26T18:53:39.559Z,26.02
2019-04-26T18:56:10.288Z,36.88
2019-04-26T18:58:38.932Z,23.75
2019-04-26T19:01:09.293Z,33.60
2019-04-26T19:03:37.835Z,41.00
2019-04-26T19:06:06.435Z,30.00
2019-04-26T19:08:45.550Z,34.55
2019-04-26T19:11:07.538Z,30.80
2019-04-26T19:13:56.358Z,34.55
2019-04-26T19:16:35.562Z,33.53
2019-04-26T19:19:08.635Z,29.92
2019-04-26T19:21:50.613Z,36.15
2019-04-26T19:24:20.935Z,35.83
2019-04-26T19:26:50.039Z,32.00
2019-04-26T19:29:22.466Z,34.45
2019-04-26T19:31:48.569Z,38.28
2019-04-26T19:34:17.891Z,42.48
2019-04-26T19:36:46.662Z,34.98
2019-04-26T19:39:15.240Z,47.45
2019-04-26T19:41:43.740Z,48.90
2019-04-26T19:44:14.603Z,51.70
2019-04-26T19:46:53.659Z,39.98
2019-04-26T19:49:36.819Z,49.18
2019-04-26T19:52:07.276Z,43.02
2019-04-26T19:54:46.204Z,31.60
2019-04-26T19:57:23.806Z,34.92
2019-04-26T19:59:52.704Z,44.27
2019-04-26T20:02:21.516Z,47.40
2019-04-26T20:04:51.361Z,37.03
2019-04-26T20:07:20.131Z,35.35
2019-04-26T20:09:48.604Z,35.58
2019-04-26T20:12:17.210Z,31.57
2019-04-26T20:14:50.649Z,29.82
2019-04-26T20:17:19.883Z,36.68
2019-04-26T20:19:47.626Z,34.05
2019-04-26T20:22:22.188Z,36.20
2019-04-26T20:24:48.672Z,31.42
2019-04-26T20:27:20.674Z,34.10
2019-04-26T20:29:49.362Z,37.45
2019-04-26T20:32:23.912Z,24.20
2019-04-26T20:35:02.396Z,33.18
2019-04-26T20:37:32.190Z,43.90
2019-04-26T20:40:17.669Z,31.37
2019-04-26T20:42:31.623Z,30.57
2019-04-26T20:45:04.327Z,29.77
2019-04-26T20:47:32.060Z,41.98
2019-04-26T20:50:02.875Z,34.85
2019-04-26T20:52:32.160Z,42.67
2019-04-26T20:55:00.775Z,32.98
2019-04-26T20:57:32.969Z,26.20
2019-04-26T21:00:03.271Z,33.98
2019-04-26T21:02:29.976Z,36.38
2019-04-26T21:04:58.519Z,33.13
2019-04-26T21:07:27.029Z,37.67
2019-04-26T21:09:55.494Z,34.45
2019-04-26T21:12:24.560Z,28.83
2019-04-26T21:14:53.569Z,27.77
2019-04-26T21:17:24.262Z,24.52
2019-04-26T21:19:54.992Z,26.60
2019-04-26T21:22:28.402Z,29.87
2019-04-26T21:24:58.456Z,29.02
2019-04-26T21:27:29.764Z,23.32
2019-04-26T21:30:03.412Z,34.85
2019-04-26T21:32:40.691Z,28.90
2019-04-26T21:35:11.136Z,30.52
2019-04-26T21:37:43.028Z,26.77
2019-04-26T21:40:16.900Z,32.05
2019-04-26T21:42:45.203Z,37.03
2019-04-26T21:45:14.265Z,33.60
2019-04-26T21:47:43.478Z,26.05
2019-04-26T21:50:13.557Z,30.37
2019-04-26T21:52:43.307Z,23.32
2019-04-26T21:55:12.884Z,34.58
2019-04-26T21:57:41.354Z,25.40
2019-04-26T22:00:15.187Z,32.95
2019-04-26T22:02:44.248Z,27.10
2019-04-26T22:05:15.062Z,43.90
2019-04-26T22:07:47.444Z,33.28
2019-04-26T22:10:16.415Z,34.25
2019-04-26T22:12:45.032Z,28.42
2019-04-26T22:15:23.450Z,33.13
2019-04-26T22:17:54.599Z,36.70
2019-04-26T22:20:24.867Z,33.98
2019-04-26T22:23:04.569Z,31.97
2019-04-26T22:25:34.886Z,33.60
2019-04-26T22:28:03.537Z,38.73
2019-04-26T22:30:33.172Z,37.80
2019-04-26T22:33:03.081Z,35.98
2019-04-26T22:35:31.932Z,32.28
2019-04-26T22:38:00.474Z,31.23
2019-04-26T22:40:29.115Z,33.30
2019-04-26T22:42:59.324Z,36.58
2019-04-26T22:45:44.134Z,39.60
2019-04-26T22:50:45.329Z,28.83
2019-04-26T22:53:13.895Z,35.20
2019-04-26T22:55:43.602Z,38.48
2019-04-26T22:58:13.415Z,38.88
2019-04-26T23:00:43.583Z,36.25
2019-04-26T23:03:13.780Z,26.30
2019-04-26T23:05:43.284Z,30.48
2019-04-26T23:08:13.589Z,31.82
2019-04-26T23:10:44.007Z,29.05
2019-04-26T23:13:20.115Z,39.03
2019-04-26T23:15:52.800Z,34.83
2019-04-26T23:18:42.899Z,34.92
2019-04-26T23:21:11.922Z,32.40
2019-04-26T23:23:41.094Z,24.80
2019-04-26T23:26:12.695Z,34.05
2019-04-26T23:28:41.306Z,32.38
2019-04-26T23:31:10.203Z,28.02
2019-04-26T23:33:38.736Z,28.23
2019-04-26T23:36:07.271Z,39.10
2019-04-26T23:38:37.383Z,30.72
2019-04-26T23:41:07.388Z,33.67
2019-04-26T23:43:36.219Z,30.88
2019-04-26T23:46:04.785Z,31.97
2019-04-26T23:48:33.391Z,25.62
2019-04-26T23:51:04.948Z,35.73
2019-04-26T23:53:33.643Z,31.23
2019-04-26T23:56:02.377Z,34.13
2019-04-26T23:58:30.922Z,27.70
